sensor_id;sensor_type;location;lat;lon;timestamp;temperature;humidity
71128;SHT30;59249;59.736;30.568;2023-05-10T00:00:46;7.31;51.46
71128;SHT30;59249;59.736;30.568;2023-05-10T00:03:14;7.29;52.07
71128;SHT30;59249;59.736;30.568;2023-05-10T00:05:43;7.26;51.92
71128;SHT30;59249;59.736;30.568;2023-05-10T00:08:12;7.26;51.18
71128;SHT30;59249;59.736;30.568;2023-05-10T00:10:41;7.25;51.69
71128;SHT30;59249;59.736;30.568;2023-05-10T00:13:10;7.12;52.31
71128;SHT30;59249;59.736;30.568;2023-05-10T00:15:40;7.03;52.36
71128;SHT30;59249;59.736;30.568;2023-05-10T00:18:09;6.98;52.11
71128;SHT30;59249;59.736;30.568;2023-05-10T00:20:38;6.87;52.10
71128;SHT30;59249;59.736;30.568;2023-05-10T00:23:07;6.89;52.49
71128;SHT30;59249;59.736;30.568;2023-05-10T00:25:35;6.86;52.58
71128;SHT30;59249;59.736;30.568;2023-05-10T00:28:04;6.79;52.21
71128;SHT30;59249;59.736;30.568;2023-05-10T00:30:33;6.82;52.83
71128;SHT30;59249;59.736;30.568;2023-05-10T00:33:03;6.77;52.56
71128;SHT30;59249;59.736;30.568;2023-05-10T00:35:32;6.80;52.28
71128;SHT30;59249;59.736;30.568;2023-05-10T00:38:01;6.77;52.50
71128;SHT30;59249;59.736;30.568;2023-05-10T00:40:30;6.82;51.67
71128;SHT30;59249;59.736;30.568;2023-05-10T00:43:03;6.86;52.10
71128;SHT30;59249;59.736;30.568;2023-05-10T00:45:33;6.84;52.18
71128;SHT30;59249;59.736;30.568;2023-05-10T00:48:06;6.81;51.99
71128;SHT30;59249;59.736;30.568;2023-05-10T00:50:37;6.84;52.02
71128;SHT30;59249;59.736;30.568;2023-05-10T00:53:08;6.78;52.40
71128;SHT30;59249;59.736;30.568;2023-05-10T00:55:37;6.80;52.51
71128;SHT30;59249;59.736;30.568;2023-05-10T00:58:06;6.70;53.05
71128;SHT30;59249;59.736;30.568;2023-05-10T01:00:36;6.68;53.70
71128;SHT30;59249;59.736;30.568;2023-05-10T01:03:07;6.61;54.17
71128;SHT30;59249;59.736;30.568;2023-05-10T01:05:36;6.57;55.50
71128;SHT30;59249;59.736;30.568;2023-05-10T01:08:06;6.50;55.15
71128;SHT30;59249;59.736;30.568;2023-05-10T01:10:36;6.38;56.38
71128;SHT30;59249;59.736;30.568;2023-05-10T01:13:05;6.34;55.57
71128;SHT30;59249;59.736;30.568;2023-05-10T01:15:34;6.19;56.79
71128;SHT30;59249;59.736;30.568;2023-05-10T01:18:04;6.24;57.15
71128;SHT30;59249;59.736;30.568;2023-05-10T01:20:40;6.08;57.09
71128;SHT30;59249;59.736;30.568;2023-05-10T01:23:38;6.10;57.49
71128;SHT30;59249;59.736;30.568;2023-05-10T01:26:39;5.99;57.69
71128;SHT30;59249;59.736;30.568;2023-05-10T01:29:57;5.98;57.32
71128;SHT30;59249;59.736;30.568;2023-05-10T01:32:43;5.95;56.98
71128;SHT30;59249;59.736;30.568;2023-05-10T01:35:20;5.84;57.73
71128;SHT30;59249;59.736;30.568;2023-05-10T01:38:01;5.85;57.66
71128;SHT30;59249;59.736;30.568;2023-05-10T01:40:39;5.89;57.36
71128;SHT30;59249;59.736;30.568;2023-05-10T01:43:19;5.80;58.22
71128;SHT30;59249;59.736;30.568;2023-05-10T01:46:01;5.95;57.98
71128;SHT30;59249;59.736;30.568;2023-05-10T01:48:47;5.98;58.93
71128;SHT30;59249;59.736;30.568;2023-05-10T01:51:22;5.84;58.56
71128;SHT30;59249;59.736;30.568;2023-05-10T01:53:59;5.99;58.05
71128;SHT30;59249;59.736;30.568;2023-05-10T01:56:33;6.05;58.22
71128;SHT30;59249;59.736;30.568;2023-05-10T01:59:10;6.10;58.63
71128;SHT30;59249;59.736;30.568;2023-05-10T02:01:41;6.12;59.78
71128;SHT30;59249;59.736;30.568;2023-05-10T02:04:15;6.15;59.74
71128;SHT30;59249;59.736;30.568;2023-05-10T02:06:47;6.30;58.69
71128;SHT30;59249;59.736;30.568;2023-05-10T02:09:18;6.30;59.17
71128;SHT30;59249;59.736;30.568;2023-05-10T02:11:50;6.41;58.56
71128;SHT30;59249;59.736;30.568;2023-05-10T02:14:20;6.56;58.66
71128;SHT30;59249;59.736;30.568;2023-05-10T02:16:55;6.86;58.63
71128;SHT30;59249;59.736;30.568;2023-05-10T02:19:27;7.28;57.99
71128;SHT30;59249;59.736;30.568;2023-05-10T02:22:18;7.73;57.11
71128;SHT30;59249;59.736;30.568;2023-05-10T02:24:49;8.08;56.69
71128;SHT30;59249;59.736;30.568;2023-05-10T02:27:20;8.33;55.96
71128;SHT30;59249;59.736;30.568;2023-05-10T02:29:50;8.66;55.78
71128;SHT30;59249;59.736;30.568;2023-05-10T02:32:21;8.88;55.14
71128;SHT30;59249;59.736;30.568;2023-05-10T02:34:53;9.14;54.64
71128;SHT30;59249;59.736;30.568;2023-05-10T02:37:25;9.32;54.60
71128;SHT30;59249;59.736;30.568;2023-05-10T02:39:56;9.57;53.81
71128;SHT30;59249;59.736;30.568;2023-05-10T02:42:27;9.78;53.57
71128;SHT30;59249;59.736;30.568;2023-05-10T02:45:07;9.97;52.78
71128;SHT30;59249;59.736;30.568;2023-05-10T02:47:36;10.08;52.68
71128;SHT30;59249;59.736;30.568;2023-05-10T02:50:08;10.15;52.38
71128;SHT30;59249;59.736;30.568;2023-05-10T02:52:42;10.26;52.73
71128;SHT30;59249;59.736;30.568;2023-05-10T02:55:15;10.23;52.45
71128;SHT30;59249;59.736;30.568;2023-05-10T02:57:52;9.98;52.91
71128;SHT30;59249;59.736;30.568;2023-05-10T03:00:24;9.66;51.96
71128;SHT30;59249;59.736;30.568;2023-05-10T03:02:54;9.48;53.09
71128;SHT30;59249;59.736;30.568;2023-05-10T03:05:25;9.40;52.86
71128;SHT30;59249;59.736;30.568;2023-05-10T03:07:54;9.32;52.57
71128;SHT30;59249;59.736;30.568;2023-05-10T03:10:29;9.43;52.98
71128;SHT30;59249;59.736;30.568;2023-05-10T03:13:10;9.40;51.98
71128;SHT30;59249;59.736;30.568;2023-05-10T03:15:50;9.36;50.31
71128;SHT30;59249;59.736;30.568;2023-05-10T03:18:25;9.18;49.31
71128;SHT30;59249;59.736;30.568;2023-05-10T03:21:01;8.96;51.59
71128;SHT30;59249;59.736;30.568;2023-05-10T03:23:41;8.87;51.71
71128;SHT30;59249;59.736;30.568;2023-05-10T03:26:19;8.71;51.48
71128;SHT30;59249;59.736;30.568;2023-05-10T03:28:50;8.70;51.40
71128;SHT30;59249;59.736;30.568;2023-05-10T03:31:20;8.74;51.08
71128;SHT30;59249;59.736;30.568;2023-05-10T03:33:51;8.72;51.08
71128;SHT30;59249;59.736;30.568;2023-05-10T03:36:25;8.68;51.24
71128;SHT30;59249;59.736;30.568;2023-05-10T03:38:55;8.64;51.51
71128;SHT30;59249;59.736;30.568;2023-05-10T03:41:24;8.56;52.14
71128;SHT30;59249;59.736;30.568;2023-05-10T03:43:54;8.47;52.57
71128;SHT30;59249;59.736;30.568;2023-05-10T03:46:22;8.61;52.05
71128;SHT30;59249;59.736;30.568;2023-05-10T03:48:51;8.66;51.34
71128;SHT30;59249;59.736;30.568;2023-05-10T03:51:20;8.73;51.26
71128;SHT30;59249;59.736;30.568;2023-05-10T03:53:50;8.74;51.47
71128;SHT30;59249;59.736;30.568;2023-05-10T03:56:22;8.76;50.75
71128;SHT30;59249;59.736;30.568;2023-05-10T03:58:51;8.86;50.08
71128;SHT30;59249;59.736;30.568;2023-05-10T04:01:20;8.93;50.01
71128;SHT30;59249;59.736;30.568;2023-05-10T04:03:48;8.91;50.03
71128;SHT30;59249;59.736;30.568;2023-05-10T04:06:17;9.01;50.85
71128;SHT30;59249;59.736;30.568;2023-05-10T04:08:46;8.95;51.32
71128;SHT30;59249;59.736;30.568;2023-05-10T04:11:16;8.94;51.70
71128;SHT30;59249;59.736;30.568;2023-05-10T04:13:45;8.96;52.43
71128;SHT30;59249;59.736;30.568;2023-05-10T04:16:14;9.01;52.82
71128;SHT30;59249;59.736;30.568;2023-05-10T04:18:43;9.08;53.11
71128;SHT30;59249;59.736;30.568;2023-05-10T04:21:12;9.12;53.39
71128;SHT30;59249;59.736;30.568;2023-05-10T04:23:41;9.17;53.74
71128;SHT30;59249;59.736;30.568;2023-05-10T04:26:09;9.24;53.27
71128;SHT30;59249;59.736;30.568;2023-05-10T04:28:39;9.34;53.33
71128;SHT30;59249;59.736;30.568;2023-05-10T04:31:10;9.45;53.29
71128;SHT30;59249;59.736;30.568;2023-05-10T04:33:38;9.53;53.81
71128;SHT30;59249;59.736;30.568;2023-05-10T04:36:08;9.68;53.57
71128;SHT30;59249;59.736;30.568;2023-05-10T04:38:40;9.81;53.00
71128;SHT30;59249;59.736;30.568;2023-05-10T04:41:10;9.93;52.70
71128;SHT30;59249;59.736;30.568;2023-05-10T04:43:41;10.03;51.77
71128;SHT30;59249;59.736;30.568;2023-05-10T04:46:09;10.17;50.95
71128;SHT30;59249;59.736;30.568;2023-05-10T04:48:38;10.31;50.17
71128;SHT30;59249;59.736;30.568;2023-05-10T04:51:07;10.41;50.04
71128;SHT30;59249;59.736;30.568;2023-05-10T04:53:36;10.49;49.02
71128;SHT30;59249;59.736;30.568;2023-05-10T04:56:06;10.64;48.74
71128;SHT30;59249;59.736;30.568;2023-05-10T04:58:35;10.74;47.69
71128;SHT30;59249;59.736;30.568;2023-05-10T05:01:09;10.84;47.57
71128;SHT30;59249;59.736;30.568;2023-05-10T05:03:38;11.04;46.56
71128;SHT30;59249;59.736;30.568;2023-05-10T05:06:07;11.21;45.99
71128;SHT30;59249;59.736;30.568;2023-05-10T05:08:36;11.39;45.78
71128;SHT30;59249;59.736;30.568;2023-05-10T05:11:05;11.53;45.66
71128;SHT30;59249;59.736;30.568;2023-05-10T05:13:33;11.57;45.64
71128;SHT30;59249;59.736;30.568;2023-05-10T05:16:03;11.67;45.01
71128;SHT30;59249;59.736;30.568;2023-05-10T05:18:33;11.78;44.94
71128;SHT30;59249;59.736;30.568;2023-05-10T05:21:02;11.91;45.17
71128;SHT30;59249;59.736;30.568;2023-05-10T05:23:31;12.03;44.55
71128;SHT30;59249;59.736;30.568;2023-05-10T05:26:00;12.14;43.92
71128;SHT30;59249;59.736;30.568;2023-05-10T05:28:28;12.24;43.68
71128;SHT30;59249;59.736;30.568;2023-05-10T05:31:00;12.36;43.16
71128;SHT30;59249;59.736;30.568;2023-05-10T05:33:29;12.47;43.17
71128;SHT30;59249;59.736;30.568;2023-05-10T05:36:01;12.65;42.89
71128;SHT30;59249;59.736;30.568;2023-05-10T05:38:30;12.79;43.00
71128;SHT30;59249;59.736;30.568;2023-05-10T05:40:59;12.89;41.77
71128;SHT30;59249;59.736;30.568;2023-05-10T05:43:28;12.99;41.21
71128;SHT30;59249;59.736;30.568;2023-05-10T05:45:57;13.06;41.14
71128;SHT30;59249;59.736;30.568;2023-05-10T05:48:26;13.20;40.73
71128;SHT30;59249;59.736;30.568;2023-05-10T05:50:55;13.27;40.14
71128;SHT30;59249;59.736;30.568;2023-05-10T05:53:26;13.33;40.16
71128;SHT30;59249;59.736;30.568;2023-05-10T05:55:56;13.49;40.06
71128;SHT30;59249;59.736;30.568;2023-05-10T05:58:25;13.51;39.96
71128;SHT30;59249;59.736;30.568;2023-05-10T06:00:55;13.53;39.18
71128;SHT30;59249;59.736;30.568;2023-05-10T06:03:24;13.77;39.45
71128;SHT30;59249;59.736;30.568;2023-05-10T06:05:53;13.92;39.25
71128;SHT30;59249;59.736;30.568;2023-05-10T06:08:21;13.92;39.19
71128;SHT30;59249;59.736;30.568;2023-05-10T06:10:52;13.87;38.91
71128;SHT30;59249;59.736;30.568;2023-05-10T06:13:21;13.97;38.59
71128;SHT30;59249;59.736;30.568;2023-05-10T06:15:49;14.11;39.01
71128;SHT30;59249;59.736;30.568;2023-05-10T06:18:18;14.20;38.77
71128;SHT30;59249;59.736;30.568;2023-05-10T06:20:47;14.27;38.34
71128;SHT30;59249;59.736;30.568;2023-05-10T06:23:16;14.16;37.91
71128;SHT30;59249;59.736;30.568;2023-05-10T06:25:45;14.33;38.08
71128;SHT30;59249;59.736;30.568;2023-05-10T06:28:15;14.40;37.96
71128;SHT30;59249;59.736;30.568;2023-05-10T06:30:44;14.42;38.05
71128;SHT30;59249;59.736;30.568;2023-05-10T06:33:13;14.51;38.35
71128;SHT30;59249;59.736;30.568;2023-05-10T06:35:43;14.48;38.20
71128;SHT30;59249;59.736;30.568;2023-05-10T06:38:12;14.55;38.71
71128;SHT30;59249;59.736;30.568;2023-05-10T06:40:41;14.63;38.94
71128;SHT30;59249;59.736;30.568;2023-05-10T06:43:10;14.63;38.96
71128;SHT30;59249;59.736;30.568;2023-05-10T06:45:41;14.72;39.17
71128;SHT30;59249;59.736;30.568;2023-05-10T06:48:10;14.89;39.14
71128;SHT30;59249;59.736;30.568;2023-05-10T06:50:38;15.00;39.18
71128;SHT30;59249;59.736;30.568;2023-05-10T06:53:09;15.04;38.56
71128;SHT30;59249;59.736;30.568;2023-05-10T06:55:37;15.09;38.65
71128;SHT30;59249;59.736;30.568;2023-05-10T06:58:06;15.14;38.78
71128;SHT30;59249;59.736;30.568;2023-05-10T07:00:35;15.06;38.38
71128;SHT30;59249;59.736;30.568;2023-05-10T07:03:08;15.17;38.40
71128;SHT30;59249;59.736;30.568;2023-05-10T07:05:37;15.34;38.26
71128;SHT30;59249;59.736;30.568;2023-05-10T07:08:06;15.42;38.42
71128;SHT30;59249;59.736;30.568;2023-05-10T07:10:35;15.51;38.26
71128;SHT30;59249;59.736;30.568;2023-05-10T07:13:04;15.58;38.44
71128;SHT30;59249;59.736;30.568;2023-05-10T07:15:34;15.58;38.43
71128;SHT30;59249;59.736;30.568;2023-05-10T07:18:03;15.61;38.01
71128;SHT30;59249;59.736;30.568;2023-05-10T07:20:35;15.67;37.64
71128;SHT30;59249;59.736;30.568;2023-05-10T07:23:03;15.66;37.60
71128;SHT30;59249;59.736;30.568;2023-05-10T07:25:32;15.64;37.72
71128;SHT30;59249;59.736;30.568;2023-05-10T07:28:01;15.74;37.43
71128;SHT30;59249;59.736;30.568;2023-05-10T07:30:30;15.78;37.29
71128;SHT30;59249;59.736;30.568;2023-05-10T07:32:58;15.86;37.43
71128;SHT30;59249;59.736;30.568;2023-05-10T07:35:27;16.00;37.87
71128;SHT30;59249;59.736;30.568;2023-05-10T07:37:57;16.15;38.00
71128;SHT30;59249;59.736;30.568;2023-05-10T07:40:28;16.28;37.64
71128;SHT30;59249;59.736;30.568;2023-05-10T07:42:57;16.36;37.06
71128;SHT30;59249;59.736;30.568;2023-05-10T07:45:27;16.23;37.05
71128;SHT30;59249;59.736;30.568;2023-05-10T07:47:56;16.14;37.53
71128;SHT30;59249;59.736;30.568;2023-05-10T07:50:25;16.38;37.10
71128;SHT30;59249;59.736;30.568;2023-05-10T07:52:54;16.48;36.64
71128;SHT30;59249;59.736;30.568;2023-05-10T07:55:25;16.38;37.38
71128;SHT30;59249;59.736;30.568;2023-05-10T07:57:53;16.43;37.47
71128;SHT30;59249;59.736;30.568;2023-05-10T08:00:22;16.49;37.28
71128;SHT30;59249;59.736;30.568;2023-05-10T08:02:51;16.72;37.31
71128;SHT30;59249;59.736;30.568;2023-05-10T08:05:20;16.88;36.95
71128;SHT30;59249;59.736;30.568;2023-05-10T08:07:49;16.96;37.19
71128;SHT30;59249;59.736;30.568;2023-05-10T08:10:18;17.00;37.28
71128;SHT30;59249;59.736;30.568;2023-05-10T08:12:48;17.11;37.30
71128;SHT30;59249;59.736;30.568;2023-05-10T08:15:20;17.07;37.11
71128;SHT30;59249;59.736;30.568;2023-05-10T08:17:49;17.16;36.97
71128;SHT30;59249;59.736;30.568;2023-05-10T08:20:18;17.21;37.09
71128;SHT30;59249;59.736;30.568;2023-05-10T08:22:47;17.23;37.16
71128;SHT30;59249;59.736;30.568;2023-05-10T08:25:18;17.34;37.10
71128;SHT30;59249;59.736;30.568;2023-05-10T08:27:48;17.33;36.62
71128;SHT30;59249;59.736;30.568;2023-05-10T08:30:17;17.31;37.33
71128;SHT30;59249;59.736;30.568;2023-05-10T08:32:45;17.25;37.40
71128;SHT30;59249;59.736;30.568;2023-05-10T08:35:15;17.01;37.30
71128;SHT30;59249;59.736;30.568;2023-05-10T08:37:46;17.22;37.00
71128;SHT30;59249;59.736;30.568;2023-05-10T08:40:19;17.09;37.24
71128;SHT30;59249;59.736;30.568;2023-05-10T08:42:58;17.22;37.25
71128;SHT30;59249;59.736;30.568;2023-05-10T08:45:33;17.30;36.88
71128;SHT30;59249;59.736;30.568;2023-05-10T08:48:06;17.37;36.60
71128;SHT30;59249;59.736;30.568;2023-05-10T08:50:37;17.38;36.87
71128;SHT30;59249;59.736;30.568;2023-05-10T08:53:11;17.49;36.51
71128;SHT30;59249;59.736;30.568;2023-05-10T08:55:41;17.58;36.62
71128;SHT30;59249;59.736;30.568;2023-05-10T08:58:11;17.56;36.88
71128;SHT30;59249;59.736;30.568;2023-05-10T09:00:40;17.56;36.64
71128;SHT30;59249;59.736;30.568;2023-05-10T09:03:10;17.37;36.16
71128;SHT30;59249;59.736;30.568;2023-05-10T09:05:39;17.63;36.19
71128;SHT30;59249;59.736;30.568;2023-05-10T09:08:08;17.53;36.31
71128;SHT30;59249;59.736;30.568;2023-05-10T09:10:39;17.68;36.52
71128;SHT30;59249;59.736;30.568;2023-05-10T09:13:12;17.78;36.04
71128;SHT30;59249;59.736;30.568;2023-05-10T09:15:44;17.85;36.04
71128;SHT30;59249;59.736;30.568;2023-05-10T09:18:15;17.81;35.85
71128;SHT30;59249;59.736;30.568;2023-05-10T09:20:45;17.86;36.00
71128;SHT30;59249;59.736;30.568;2023-05-10T09:23:15;17.77;36.28
71128;SHT30;59249;59.736;30.568;2023-05-10T09:25:44;17.79;35.58
71128;SHT30;59249;59.736;30.568;2023-05-10T09:28:14;17.70;36.05
71128;SHT30;59249;59.736;30.568;2023-05-10T09:30:52;17.64;36.40
71128;SHT30;59249;59.736;30.568;2023-05-10T09:33:25;17.62;36.59
71128;SHT30;59249;59.736;30.568;2023-05-10T09:35:54;17.63;36.50
71128;SHT30;59249;59.736;30.568;2023-05-10T09:38:22;17.83;36.15
71128;SHT30;59249;59.736;30.568;2023-05-10T09:40:52;17.96;36.25
71128;SHT30;59249;59.736;30.568;2023-05-10T09:43:24;18.01;36.08
71128;SHT30;59249;59.736;30.568;2023-05-10T09:45:53;18.01;36.18
71128;SHT30;59249;59.736;30.568;2023-05-10T09:48:24;17.94;36.15
71128;SHT30;59249;59.736;30.568;2023-05-10T09:50:58;18.02;36.47
71128;SHT30;59249;59.736;30.568;2023-05-10T09:53:26;17.91;35.51
71128;SHT30;59249;59.736;30.568;2023-05-10T09:55:55;18.04;35.90
71128;SHT30;59249;59.736;30.568;2023-05-10T09:58:25;18.07;36.27
71128;SHT30;59249;59.736;30.568;2023-05-10T10:00:54;18.21;36.47
71128;SHT30;59249;59.736;30.568;2023-05-10T10:03:24;18.11;36.39
71128;SHT30;59249;59.736;30.568;2023-05-10T10:05:57;18.21;35.96
71128;SHT30;59249;59.736;30.568;2023-05-10T10:08:25;18.10;36.14
71128;SHT30;59249;59.736;30.568;2023-05-10T10:10:55;18.19;36.56
71128;SHT30;59249;59.736;30.568;2023-05-10T10:13:25;18.26;36.25
71128;SHT30;59249;59.736;30.568;2023-05-10T10:15:54;18.36;36.00
71128;SHT30;59249;59.736;30.568;2023-05-10T10:18:23;18.40;36.18
71128;SHT30;59249;59.736;30.568;2023-05-10T10:20:56;18.29;35.91
71128;SHT30;59249;59.736;30.568;2023-05-10T10:23:26;18.47;36.31
71128;SHT30;59249;59.736;30.568;2023-05-10T10:25:56;18.37;36.05
71128;SHT30;59249;59.736;30.568;2023-05-10T10:28:38;18.43;35.78
71128;SHT30;59249;59.736;30.568;2023-05-10T10:31:23;18.27;35.47
71128;SHT30;59249;59.736;30.568;2023-05-10T10:34:00;18.53;35.91
71128;SHT30;59249;59.736;30.568;2023-05-10T10:36:30;18.59;35.04
71128;SHT30;59249;59.736;30.568;2023-05-10T10:39:01;18.46;35.20
71128;SHT30;59249;59.736;30.568;2023-05-10T10:41:33;18.52;34.97
71128;SHT30;59249;59.736;30.568;2023-05-10T10:44:36;18.57;35.40
71128;SHT30;59249;59.736;30.568;2023-05-10T10:47:10;18.70;35.42
71128;SHT30;59249;59.736;30.568;2023-05-10T10:50:03;18.65;34.91
71128;SHT30;59249;59.736;30.568;2023-05-10T10:52:34;18.76;35.33
71128;SHT30;59249;59.736;30.568;2023-05-10T10:55:06;18.79;35.09
71128;SHT30;59249;59.736;30.568;2023-05-10T10:57:48;18.38;35.26
71128;SHT30;59249;59.736;30.568;2023-05-10T11:00:32;18.56;35.42
71128;SHT30;59249;59.736;30.568;2023-05-10T11:03:04;18.77;35.00
71128;SHT30;59249;59.736;30.568;2023-05-10T11:05:38;18.92;35.13
71128;SHT30;59249;59.736;30.568;2023-05-10T11:08:15;18.79;34.83
71128;SHT30;59249;59.736;30.568;2023-05-10T11:11:05;18.41;34.75
71128;SHT30;59249;59.736;30.568;2023-05-10T11:13:40;18.65;34.86
71128;SHT30;59249;59.736;30.568;2023-05-10T11:16:18;18.70;34.30
71128;SHT30;59249;59.736;30.568;2023-05-10T11:18:59;18.44;34.61
71128;SHT30;59249;59.736;30.568;2023-05-10T11:21:30;18.51;34.47
71128;SHT30;59249;59.736;30.568;2023-05-10T11:24:00;18.78;34.64
71128;SHT30;59249;59.736;30.568;2023-05-10T11:26:35;18.87;34.48
71128;SHT30;59249;59.736;30.568;2023-05-10T11:29:04;19.04;34.75
71128;SHT30;59249;59.736;30.568;2023-05-10T11:31:35;19.11;34.50
71128;SHT30;59249;59.736;30.568;2023-05-10T11:34:11;18.72;33.84
71128;SHT30;59249;59.736;30.568;2023-05-10T11:36:41;18.99;33.66
71128;SHT30;59249;59.736;30.568;2023-05-10T11:39:10;19.00;33.69
71128;SHT30;59249;59.736;30.568;2023-05-10T11:41:39;19.21;33.40
71128;SHT30;59249;59.736;30.568;2023-05-10T11:44:09;19.33;33.69
71128;SHT30;59249;59.736;30.568;2023-05-10T11:46:39;19.40;34.16
71128;SHT30;59249;59.736;30.568;2023-05-10T11:49:09;19.63;33.68
71128;SHT30;59249;59.736;30.568;2023-05-10T11:51:38;19.63;33.58
71128;SHT30;59249;59.736;30.568;2023-05-10T11:54:11;19.51;33.06
71128;SHT30;59249;59.736;30.568;2023-05-10T11:56:40;19.49;32.69
71128;SHT30;59249;59.736;30.568;2023-05-10T11:59:09;19.60;32.90
71128;SHT30;59249;59.736;30.568;2023-05-10T12:01:39;19.65;32.51
71128;SHT30;59249;59.736;30.568;2023-05-10T12:04:08;19.42;33.12
71128;SHT30;59249;59.736;30.568;2023-05-10T12:06:40;19.39;33.24
71128;SHT30;59249;59.736;30.568;2023-05-10T12:09:09;19.38;33.16
71128;SHT30;59249;59.736;30.568;2023-05-10T12:11:40;19.47;32.58
71128;SHT30;59249;59.736;30.568;2023-05-10T12:14:11;19.66;32.53
71128;SHT30;59249;59.736;30.568;2023-05-10T12:16:43;19.44;32.52
71128;SHT30;59249;59.736;30.568;2023-05-10T12:19:12;19.47;32.29
71128;SHT30;59249;59.736;30.568;2023-05-10T12:21:47;19.61;32.13
71128;SHT30;59249;59.736;30.568;2023-05-10T12:24:16;19.66;32.82
71128;SHT30;59249;59.736;30.568;2023-05-10T12:26:45;19.51;32.02
71128;SHT30;59249;59.736;30.568;2023-05-10T12:29:17;19.82;31.46
71128;SHT30;59249;59.736;30.568;2023-05-10T12:31:52;19.71;31.69
71128;SHT30;59249;59.736;30.568;2023-05-10T12:34:32;19.86;32.32
71128;SHT30;59249;59.736;30.568;2023-05-10T12:37:03;19.83;31.93
71128;SHT30;59249;59.736;30.568;2023-05-10T12:39:40;20.01;31.58
71128;SHT30;59249;59.736;30.568;2023-05-10T12:42:10;19.88;31.36
71128;SHT30;59249;59.736;30.568;2023-05-10T12:44:39;19.92;30.85
71128;SHT30;59249;59.736;30.568;2023-05-10T12:47:09;19.92;30.41
71128;SHT30;59249;59.736;30.568;2023-05-10T12:49:39;20.00;29.42
71128;SHT30;59249;59.736;30.568;2023-05-10T12:52:07;20.10;29.59
71128;SHT30;59249;59.736;30.568;2023-05-10T12:54:36;20.24;29.91
71128;SHT30;59249;59.736;30.568;2023-05-10T12:57:05;20.21;30.34
71128;SHT30;59249;59.736;30.568;2023-05-10T12:59:34;20.11;30.16
71128;SHT30;59249;59.736;30.568;2023-05-10T13:02:05;20.07;29.83
71128;SHT30;59249;59.736;30.568;2023-05-10T13:04:36;20.02;29.78
71128;SHT30;59249;59.736;30.568;2023-05-10T13:07:07;20.01;29.69
71128;SHT30;59249;59.736;30.568;2023-05-10T13:09:36;20.04;29.55
71128;SHT30;59249;59.736;30.568;2023-05-10T13:12:05;20.10;29.67
71128;SHT30;59249;59.736;30.568;2023-05-10T13:14:36;20.24;29.80
71128;SHT30;59249;59.736;30.568;2023-05-10T13:17:05;20.29;30.14
71128;SHT30;59249;59.736;30.568;2023-05-10T13:19:37;20.12;30.49
71128;SHT30;59249;59.736;30.568;2023-05-10T13:22:05;20.16;30.64
71128;SHT30;59249;59.736;30.568;2023-05-10T13:24:34;20.19;31.02
71128;SHT30;59249;59.736;30.568;2023-05-10T13:27:03;20.24;30.89
71128;SHT30;59249;59.736;30.568;2023-05-10T13:29:34;20.12;30.85
71128;SHT30;59249;59.736;30.568;2023-05-10T13:32:05;20.13;30.89
71128;SHT30;59249;59.736;30.568;2023-05-10T13:34:36;20.12;30.59
71128;SHT30;59249;59.736;30.568;2023-05-10T13:37:05;20.12;30.93
71128;SHT30;59249;59.736;30.568;2023-05-10T13:39:34;20.25;30.53
71128;SHT30;59249;59.736;30.568;2023-05-10T13:42:05;20.26;30.43
71128;SHT30;59249;59.736;30.568;2023-05-10T13:44:33;20.25;30.46
71128;SHT30;59249;59.736;30.568;2023-05-10T13:47:03;20.18;30.39
71128;SHT30;59249;59.736;30.568;2023-05-10T13:49:32;20.29;30.28
71128;SHT30;59249;59.736;30.568;2023-05-10T13:52:02;20.15;30.39
71128;SHT30;59249;59.736;30.568;2023-05-10T13:54:34;19.98;30.70
71128;SHT30;59249;59.736;30.568;2023-05-10T13:57:03;19.76;30.45
71128;SHT30;59249;59.736;30.568;2023-05-10T13:59:32;19.61;30.55
71128;SHT30;59249;59.736;30.568;2023-05-10T14:02:00;19.84;30.67
71128;SHT30;59249;59.736;30.568;2023-05-10T14:04:30;19.59;30.88
71128;SHT30;59249;59.736;30.568;2023-05-10T14:06:59;19.45;30.87
71128;SHT30;59249;59.736;30.568;2023-05-10T14:09:29;19.38;31.12
71128;SHT30;59249;59.736;30.568;2023-05-10T14:11:58;19.61;31.05
71128;SHT30;59249;59.736;30.568;2023-05-10T14:14:26;19.40;30.87
71128;SHT30;59249;59.736;30.568;2023-05-10T14:16:56;19.86;31.57
71128;SHT30;59249;59.736;30.568;2023-05-10T14:19:26;19.85;31.13
71128;SHT30;59249;59.736;30.568;2023-05-10T14:21:57;20.05;31.02
71128;SHT30;59249;59.736;30.568;2023-05-10T14:24:26;20.33;31.05
71128;SHT30;59249;59.736;30.568;2023-05-10T14:26:56;20.53;30.58
71128;SHT30;59249;59.736;30.568;2023-05-10T14:29:26;20.68;30.47
71128;SHT30;59249;59.736;30.568;2023-05-10T14:31:54;20.87;30.20
71128;SHT30;59249;59.736;30.568;2023-05-10T14:34:23;21.03;30.62
71128;SHT30;59249;59.736;30.568;2023-05-10T14:36:52;21.23;30.39
71128;SHT30;59249;59.736;30.568;2023-05-10T14:39:21;21.46;30.10
71128;SHT30;59249;59.736;30.568;2023-05-10T14:41:49;21.15;30.28
71128;SHT30;59249;59.736;30.568;2023-05-10T14:44:21;21.35;30.20
71128;SHT30;59249;59.736;30.568;2023-05-10T14:46:51;21.50;30.32
71128;SHT30;59249;59.736;30.568;2023-05-10T14:49:19;21.77;30.30
71128;SHT30;59249;59.736;30.568;2023-05-10T14:51:50;22.04;29.61
71128;SHT30;59249;59.736;30.568;2023-05-10T14:54:19;21.91;29.59
71128;SHT30;59249;59.736;30.568;2023-05-10T14:56:47;22.10;29.23
71128;SHT30;59249;59.736;30.568;2023-05-10T14:59:17;22.13;29.38
71128;SHT30;59249;59.736;30.568;2023-05-10T15:01:47;21.90;29.42
71128;SHT30;59249;59.736;30.568;2023-05-10T15:04:17;21.61;29.85
71128;SHT30;59249;59.736;30.568;2023-05-10T15:06:46;21.51;29.66
71128;SHT30;59249;59.736;30.568;2023-05-10T15:09:15;21.85;29.42
71128;SHT30;59249;59.736;30.568;2023-05-10T15:11:45;21.87;29.03
71128;SHT30;59249;59.736;30.568;2023-05-10T15:14:13;21.57;29.18
71128;SHT30;59249;59.736;30.568;2023-05-10T15:16:42;21.40;29.17
71128;SHT30;59249;59.736;30.568;2023-05-10T15:19:15;21.55;29.09
71128;SHT30;59249;59.736;30.568;2023-05-10T15:21:44;20.78;29.21
71128;SHT30;59249;59.736;30.568;2023-05-10T15:24:14;20.68;29.56
71128;SHT30;59249;59.736;30.568;2023-05-10T15:26:43;20.39;30.00
71128;SHT30;59249;59.736;30.568;2023-05-10T15:29:12;20.37;29.98
71128;SHT30;59249;59.736;30.568;2023-05-10T15:31:47;20.08;29.92
71128;SHT30;59249;59.736;30.568;2023-05-10T15:34:18;20.00;29.58
71128;SHT30;59249;59.736;30.568;2023-05-10T15:36:47;20.21;28.91
71128;SHT30;59249;59.736;30.568;2023-05-10T15:39:16;20.21;28.70
71128;SHT30;59249;59.736;30.568;2023-05-10T15:41:44;20.12;29.24
71128;SHT30;59249;59.736;30.568;2023-05-10T15:44:14;19.80;29.19